Database: COMPET-N - COOP - 3PL - 4PL - CNDOOM

WAD: Doom | Doom 2 | TNT | Plutonia | AV | HR | Scythe | MM | MM2 | Requiem | CE
Category: speed | nmare | max | nm100s | tyson | pacifist | fast | respawn | nomo | misc | built | all
Highscore: ALL | IWAD | PWAD | Country | Continent

Remove: wad | map | category | player | all
MapPlayerTimeDateFilenameCommentsDL
MAP18: NeurosphereJim Leonard7.002009-08-26pp18-007.zip - 224
MAP15: Dead ZoneJim Leonard17.002002-11-16ep15-017.zip - 237
MAP15S: Dead Zone Secret ExitJim Leonard17.002002-11-16ep15s017.zip - 210
MAP20: The Forsaken HallJim Leonard17.002001-06-22rp20-017.zip - 141
MAP11: Storage FacilityJim Leonard21.002002-11-15ep11-021.zip - 218
E1M2: Nuclear PlantJim Leonard23.002003-01-04p1m2-023.zip - 287
MAP31: PharaohJim Leonard28.002003-02-14ev31-028.zip - 211
MAP23: Lunar Mining ProjectJim Leonard31.002002-11-15ev23-031.zip - 129
MAP31S: Pharaoh Secret ExitJim Leonard32.002003-02-14ev31s032.zip - 210
MAP02: SacrificiumJim Leonard32.002002-10-16rp02-032.zip - 257
MAP01: System ControlJim Leonard33.002008-02-18ep01-033.zip - 362
MAP01: CongoJim Leonard34.002002-08-25pp01-034.zip - 276
MAP01: System ControlJim Leonard36.002002-10-01ep01-036.zip - 284
MAP24: QuarryJim Leonard38.002005-07-26ep24-038.zip - 206
MAP05: Ghost TownJim Leonard41.002002-08-08pp05-041.zip - 226
MAP26: BunkerJim Leonard48.002003-01-14pl26-048.zip - 131
MAP27: Anti-ChristJim Leonard48.002003-01-16pl27-048.zip - 178
MAP04: CagedJim Leonard49.002007-03-02pp04-049.zip - 258
E2M1: ForayJim Leonard49.002002-04-26cp21-049.zip - 276
MAP24: QuarryJim Leonard51.002002-10-04ep24-051.zip - 142
MAP05: Rites of PassageJim Leonard57.002006-09-02m205-057.zip - 121
MAP13: Devils ParadiseJim Leonard57.002003-01-26m213-057.zip - 179
MAP05: Rites of PassageJim Leonard59.002002-04-29m205p059.zip - 117
MAP14: GenesisJim Leonard1:00.002001-11-20pp14-100.zip - 133
MAP11: Storage FacilityJim Leonard1:01.002001-06-10ep11-101.zip - 130
MAP24: Procrustes ChambersJim Leonard1:02.002008-03-18rp24-102.zip - 200
MAP17: Processing AreaJim Leonard1:04.002001-08-10ep17-104.zip - 162
MAP13: Devils ParadiseJim Leonard1:07.002002-04-30m213-107.zip - 132
MAP06: Barons LairJim Leonard1:08.002008-02-20pp06-108.zip - 213
MAP31S: DejaVu Secret ExitJim Leonard1:11.002002-04-30m231p111.zip - 98
MAP23: Lunar Mining ProjectJim Leonard1:12.002001-06-11ep23-112.zip - 170
MAP06: Barons LairJim Leonard1:14.002002-09-24pp06-114.zip - 141
MAP02: SacrificiumJim Leonard1:22.002001-06-20rp02-122.zip - 184
MAP03: AztecJim Leonard1:23.002002-11-08pp03-123.zip - 260
MAP02: The Feeding PitJim Leonard1:25.002002-04-03m202p125.zip - 139
MAP09: AbattoireJim Leonard1:30.002005-07-23pp09-130.zip - 126
MAP28: The SewersJim Leonard1:32.002006-06-12pl28-132.zip - 203
MAP07: PrisonJim Leonard1:34.002002-10-05ep07-134.zip - 219
MAP09: AbattoireJim Leonard1:37.002002-08-06pp09-137.zip - 137
MAP28: The SewersJim Leonard1:38.002002-08-04pl28-138.zip - 150
MAP19: Shipping/RespawningJim Leonard1:44.002001-08-16ep19-144.zip - 144
MAP06: The PowerstationJim Leonard1:48.002002-07-16mm06p148.zip - 153
MAP10: The Black GateJim Leonard1:50.002002-10-16rp10-150.zip - 200
MAP18: MillJim Leonard2:06.002002-12-23ep18-206.zip - 191
MAP18: MillJim Leonard2:07.002002-09-29ep18-207.zip - 156
MAP31: DejaVuJim Leonard2:09.002002-05-01m231p209.zip - 110
MAP13: Nukage ProcessingJim Leonard2:10.002002-10-05ep13-210.zip - 205
MAP18: MillJim Leonard2:11.002002-09-27ep18-211.zip - 166
MAP28: The SewersJim Leonard2:14.002001-11-17pp28-214.zip - 134
MAP04: WormholeJim Leonard2:17.002002-11-22ep04-217.zip - 175
MAP27: Mount PainJim Leonard2:22.002002-10-05ep27-222.zip - 137
MAP19: Skinny PuppyJim Leonard2:22.002002-07-16rp19-222.zip - 222
MAP15: Industrial ZoneJim Leonard2:23.002003-02-11pa15-223.zip - 230
MAP16: Deepest ReachesJim Leonard2:30.002002-10-06ep16-230.zip - 195
MAP18: MillJim Leonard2:34.002002-08-03ep18-234.zip - 154
MAP03: AztecJim Leonard3:05.002001-11-18pp03-305.zip - 147
MAP14: Steel WorksJim Leonard3:12.002008-03-17ep14-312.zip - 246
E1M3S: Toxin Refinery Secret ExitJim Leonard3:40.832018-11-30p1m3s340.zip - 135
MAP31S: Cyberden Secret ExitJim Leonard4:35.002003-03-22pp31-435.zip - 114
MAP07: FrustrationJim Leonard4:43.342018-12-02m207p443.zip - 131
MAP04: WormholeJim Leonard4:56.002001-07-14ep04-456.zip - 152
MAP07: PrisonJim Leonard5:14.002001-06-11ep07-514.zip - 162
E1M3S: Toxin Refinery Secret ExitJim Leonard5:33.002002-09-22p1m3s533.zip - 148
MAP01: OutpostJim Leonard5:34.002003-05-05m201p534.zip - 315
MAP18: MillJim Leonard6:35.002001-08-22ep18-635.zip - 162
MAP10: RedemptionJim Leonard8:13.002008-03-04ep10-813.zip - 222
MAP10: The Black GateJim Leonard8:36.002001-07-16rp10-836.zip - 150
MAP25: Barons DenJim Leonard9:08.002008-03-16ep25-908.zip - 218
MAP11: Rats in the WallsJim Leonard9:45.002015-02-18rp11-945.zip - 644
MAP26: The Abandoned MinesJim Leonard11:53.002008-03-01pa261153.zip - 236
MAP28: HeckJim Leonard14:14.002008-03-14ep281414.zip - 220
MAP04: FireworksJim Leonard14:24.002008-03-27rp041424.zip - 221
MAP06: TrappedJim Leonard15:52.572018-12-10m2061552.zip - 94
Remove: wad | map | category | player | all